Terminal Aerodrome Forecast
Issued by NWS

Home | Current Version | Previous Version | Text Only | Print | Product List | Glossary On
Versions: 1 2 3 4 5 6 7 8 9 10 11 12 13 14 15 16 17 18 19 20
000
FTUS43 KLSX 251100
TAFCPS
TAF
KCPS 251131Z 2512/2612 15007KT 6SM BR VCSH BKN008 OVC012
     FM251600 15009KT P6SM OVC020
     FM252000 16007KT P6SM VCTS BKN020CB
     FM252200 02010KT 5SM -RA BR OVC012
     FM260700 01011KT P6SM OVC012=

USA.gov is the U.S. government's official web portal to all federal, state and local government web resources and services.